createdAt,value
2023-01-10T00:00:46.751Z,76339.50
2023-01-10T00:03:28.615Z,76341.53
2023-01-10T00:05:55.489Z,76351.69
2023-01-10T00:08:23.047Z,76349.66
2023-01-10T00:10:50.274Z,76349.66
2023-01-10T00:13:24.429Z,76349.66
2023-01-10T00:15:56.080Z,76359.78
2023-01-10T00:18:23.284Z,76345.59
2023-01-10T00:20:50.469Z,76357.75
2023-01-10T00:23:18.524Z,76361.81
2023-01-10T00:25:46.374Z,76373.97
2023-01-10T00:28:19.472Z,76369.91
2023-01-10T00:31:01.525Z,76382.09
2023-01-10T00:33:32.091Z,76373.97
2023-01-10T00:36:00.440Z,76382.09
2023-01-10T00:38:28.752Z,76373.97
2023-01-10T00:40:55.636Z,76382.09
2023-01-10T00:43:41.451Z,76390.19
2023-01-10T00:46:09.838Z,76394.25
2023-01-10T00:48:37.663Z,76410.47
2023-01-10T00:51:05.359Z,76402.34
2023-01-10T00:53:32.690Z,76420.59
2023-01-10T00:55:59.586Z,76418.56
2023-01-10T00:58:26.949Z,76406.41
2023-01-10T01:00:53.840Z,76410.47
2023-01-10T01:03:23.338Z,76414.50
2023-01-10T01:05:50.711Z,76422.63
2023-01-10T01:08:19.248Z,76418.56
2023-01-10T01:10:46.564Z,76422.63
2023-01-10T01:13:20.089Z,76430.72
2023-01-10T01:15:48.498Z,76422.63
2023-01-10T01:18:19.080Z,76432.75
2023-01-10T01:20:45.959Z,76430.72
2023-01-10T01:23:14.532Z,76434.78
2023-01-10T01:25:42.022Z,76434.78
2023-01-10T01:28:12.729Z,76440.88
2023-01-10T01:30:39.994Z,76451.00
2023-01-10T01:33:07.863Z,76438.84
2023-01-10T01:35:35.166Z,76438.84
2023-01-10T01:38:02.504Z,76438.84
2023-01-10T01:40:29.807Z,76430.72
2023-01-10T01:42:57.037Z,76444.91
2023-01-10T01:45:23.928Z,76459.09
2023-01-10T01:47:59.457Z,76463.16
2023-01-10T01:50:43.762Z,76451.00
2023-01-10T01:53:20.946Z,76459.09
2023-01-10T01:55:49.183Z,76451.00
2023-01-10T01:58:20.396Z,76451.00
2023-01-10T02:00:47.379Z,76459.09
2023-01-10T02:03:15.412Z,76451.00
2023-01-10T02:05:44.138Z,76455.06
2023-01-10T02:08:13.361Z,76467.22
2023-01-10T02:11:06.175Z,76465.19
2023-01-10T02:13:35.156Z,76471.28
2023-01-10T02:16:02.031Z,76469.25
2023-01-10T02:18:29.365Z,76475.31
2023-01-10T02:21:18.287Z,76475.31
2023-01-10T02:24:04.201Z,76467.22
2023-01-10T02:26:59.285Z,76475.31
2023-01-10T02:29:40.131Z,76473.28
2023-01-10T02:32:13.039Z,76473.28
2023-01-10T02:35:07.424Z,76479.38
2023-01-10T02:37:51.357Z,76455.06
2023-01-10T02:40:47.516Z,76467.22
2023-01-10T02:43:19.502Z,76479.38
2023-01-10T02:45:52.417Z,76475.31
2023-01-10T02:48:19.463Z,76473.28
2023-01-10T02:51:08.557Z,76485.47
2023-01-10T02:53:41.396Z,76475.31
2023-01-10T02:56:20.739Z,76481.41
2023-01-10T02:59:06.518Z,76487.50
2023-01-10T03:01:58.164Z,76485.47
2023-01-10T03:04:26.120Z,76487.50
2023-01-10T03:06:59.449Z,76487.50
2023-01-10T03:09:35.289Z,76491.53
2023-01-10T03:12:14.627Z,76495.59
2023-01-10T03:14:45.216Z,76491.53
2023-01-10T03:17:14.927Z,76489.50
2023-01-10T03:19:47.281Z,76493.56
2023-01-10T03:22:15.106Z,76487.50
2023-01-10T03:24:51.656Z,76475.31
2023-01-10T03:27:19.259Z,76483.44
2023-01-10T03:29:54.941Z,76487.50
2023-01-10T03:32:27.722Z,76495.59
2023-01-10T03:34:56.043Z,76495.59
2023-01-10T03:37:42.394Z,76495.59
2023-01-10T03:40:28.709Z,76499.66
2023-01-10T03:43:20.658Z,76507.75
2023-01-10T03:46:38.091Z,76509.78
2023-01-10T03:49:08.111Z,76505.72
2023-01-10T03:51:37.618Z,76503.69
2023-01-10T03:54:05.296Z,76511.81
2023-01-10T03:56:43.069Z,76515.88
2023-01-10T03:59:10.497Z,76523.97
2023-01-10T04:01:37.668Z,76523.97
2023-01-10T04:04:05.183Z,76526.00
2023-01-10T04:06:32.083Z,76519.91
2023-01-10T04:08:59.291Z,76519.91
2023-01-10T04:11:44.567Z,76532.09
2023-01-10T04:14:11.787Z,76544.25
2023-01-10T04:16:38.631Z,76540.19
2023-01-10T04:19:06.063Z,76540.19
2023-01-10T04:21:32.957Z,76544.25
2023-01-10T04:24:00.299Z,76544.25
2023-01-10T04:26:27.362Z,76588.84
2023-01-10T04:28:54.589Z,76548.31
2023-01-10T04:31:22.941Z,76552.34
2023-01-10T04:33:50.136Z,76544.25
2023-01-10T04:36:16.971Z,76544.25
2023-01-10T04:38:44.172Z,76552.34
2023-01-10T04:41:11.039Z,76560.47
2023-01-10T04:43:38.192Z,76572.63
2023-01-10T04:46:05.373Z,76572.63
2023-01-10T04:48:33.661Z,76582.75
2023-01-10T04:51:00.584Z,76576.69
2023-01-10T04:53:27.855Z,76584.78
2023-01-10T04:55:54.738Z,76592.91
2023-01-10T04:58:21.921Z,76601.00
2023-01-10T05:00:48.812Z,76592.91
2023-01-10T05:03:20.194Z,76596.94
2023-01-10T05:05:47.150Z,76605.06
2023-01-10T05:08:15.417Z,76609.09
2023-01-10T05:10:42.265Z,76613.16
2023-01-10T05:13:09.399Z,76619.25
2023-01-10T05:15:36.311Z,76625.31
2023-01-10T05:18:03.596Z,76625.31
2023-01-10T05:20:30.567Z,76633.44
2023-01-10T05:22:57.838Z,76633.44
2023-01-10T05:25:24.785Z,76637.50
2023-01-10T05:27:52.012Z,76641.53
2023-01-10T05:30:19.406Z,76641.53
2023-01-10T05:32:46.617Z,76643.56
2023-01-10T05:35:13.794Z,76645.59
2023-01-10T05:37:41.035Z,76647.63
2023-01-10T05:40:08.927Z,76653.72
2023-01-10T05:42:36.226Z,76651.69
2023-01-10T05:45:03.501Z,76661.81
2023-01-10T05:47:30.742Z,76661.81
2023-01-10T05:49:57.755Z,76667.91
2023-01-10T05:52:24.903Z,76665.88
2023-01-10T05:54:51.755Z,76671.94
2023-01-10T05:57:19.255Z,76678.03
2023-01-10T05:59:46.260Z,76686.13
2023-01-10T06:02:13.563Z,76682.09
2023-01-10T06:04:40.586Z,76678.03
2023-01-10T06:07:07.863Z,76686.13
2023-01-10T06:09:34.744Z,76698.31
2023-01-10T06:12:02.259Z,76702.34
2023-01-10T06:14:29.104Z,76706.41
2023-01-10T06:16:57.211Z,76710.47
2023-01-10T06:19:24.102Z,76720.59
2023-01-10T06:21:51.326Z,76714.53
2023-01-10T06:24:18.390Z,76710.47
2023-01-10T06:26:45.720Z,76726.69
2023-01-10T06:29:12.727Z,76728.72
2023-01-10T06:31:40.128Z,76722.63
2023-01-10T06:34:07.124Z,76722.63
2023-01-10T06:36:34.304Z,76734.78
2023-01-10T06:39:01.510Z,76738.84
2023-01-10T06:41:28.766Z,76742.91
2023-01-10T06:43:55.704Z,76763.16
2023-01-10T06:46:23.146Z,76746.97
2023-01-10T06:48:50.216Z,76740.88
2023-01-10T06:51:20.056Z,76755.06
2023-01-10T06:53:47.587Z,76759.13
2023-01-10T06:56:14.997Z,76751.00
2023-01-10T06:58:42.007Z,76746.97
2023-01-10T07:01:18.468Z,76771.28
2023-01-10T07:03:45.570Z,76751.00
2023-01-10T07:06:12.910Z,76771.28
2023-01-10T07:08:42.115Z,76775.34
2023-01-10T07:11:10.811Z,76775.34
2023-01-10T07:13:38.470Z,76775.34
2023-01-10T07:16:14.117Z,76771.28
2023-01-10T07:18:43.067Z,76763.16
2023-01-10T07:21:11.621Z,76773.31
2023-01-10T07:23:38.862Z,76775.34
2023-01-10T07:26:09.000Z,76765.19
2023-01-10T07:28:36.179Z,76767.22
2023-01-10T07:31:05.818Z,76767.22
2023-01-10T07:33:32.911Z,76759.13
2023-01-10T07:36:01.237Z,76755.06
2023-01-10T07:38:28.561Z,76767.22
2023-01-10T07:40:55.904Z,76763.16
2023-01-10T07:43:22.851Z,76767.22
2023-01-10T07:45:50.068Z,76757.09
2023-01-10T07:48:17.094Z,76755.06
2023-01-10T07:50:44.361Z,76755.06
2023-01-10T07:53:12.771Z,76767.22
2023-01-10T07:55:40.190Z,76757.09
2023-01-10T07:58:08.085Z,76759.13
2023-01-10T08:00:35.898Z,76771.28
2023-01-10T08:03:03.071Z,76769.25
2023-01-10T08:05:30.965Z,76775.34
2023-01-10T08:08:00.227Z,76777.38
2023-01-10T08:10:27.867Z,76787.50
2023-01-10T08:12:54.920Z,76795.59
2023-01-10T08:15:22.216Z,76799.66
2023-01-10T08:17:49.159Z,76791.56
2023-01-10T08:20:16.512Z,76795.59
2023-01-10T08:22:43.406Z,76791.56
2023-01-10T08:25:10.937Z,76809.81
2023-01-10T08:27:46.379Z,76815.88
2023-01-10T08:30:14.334Z,76824.00
2023-01-10T08:32:41.311Z,76819.94
2023-01-10T08:35:09.385Z,76832.09
2023-01-10T08:37:36.253Z,76844.25
2023-01-10T08:40:04.058Z,76844.25
2023-01-10T08:42:31.078Z,76852.38
2023-01-10T08:45:00.377Z,76856.44
2023-01-10T08:47:29.402Z,76860.47
2023-01-10T08:49:56.729Z,76864.53
2023-01-10T08:52:23.675Z,76872.66
2023-01-10T08:54:51.028Z,76868.59
2023-01-10T08:57:17.948Z,76876.69
2023-01-10T08:59:45.163Z,76884.81
2023-01-10T09:02:15.504Z,76884.81
2023-01-10T09:04:42.869Z,76890.88
2023-01-10T09:07:09.811Z,76901.03
2023-01-10T09:09:37.141Z,76901.03
2023-01-10T09:12:24.301Z,76890.88
2023-01-10T09:14:51.671Z,76888.88
2023-01-10T09:17:18.645Z,76886.84
2023-01-10T09:19:45.894Z,76876.69
2023-01-10T09:22:12.821Z,76878.72
2023-01-10T09:24:41.853Z,76876.69
2023-01-10T09:27:08.772Z,76876.69
2023-01-10T09:29:35.923Z,76878.72
2023-01-10T09:32:02.869Z,76872.66
2023-01-10T09:34:30.212Z,76868.59
2023-01-10T09:36:57.330Z,76860.47
2023-01-10T09:39:25.634Z,76872.66
2023-01-10T09:42:04.691Z,76864.53
2023-01-10T09:44:57.600Z,76864.53
2023-01-10T09:47:52.012Z,76860.47
2023-01-10T09:50:36.275Z,76860.47
2023-01-10T09:53:10.852Z,76864.53
2023-01-10T09:55:39.160Z,76852.38
2023-01-10T09:58:16.197Z,76848.31
2023-01-10T10:00:57.434Z,76852.38
2023-01-10T10:03:48.185Z,76850.34
2023-01-10T10:06:15.684Z,76850.34
2023-01-10T10:08:45.479Z,76860.47
2023-01-10T10:11:28.240Z,76860.47
2023-01-10T10:14:18.290Z,76856.44
2023-01-10T10:17:03.631Z,76864.53
2023-01-10T10:19:50.517Z,76856.44
2023-01-10T10:22:42.767Z,76856.44
2023-01-10T10:25:28.178Z,76860.47
2023-01-10T10:28:16.921Z,76864.53
2023-01-10T10:31:00.110Z,76868.59
2023-01-10T10:33:30.434Z,76872.66
2023-01-10T10:36:09.642Z,76876.69
2023-01-10T10:38:43.675Z,76880.75
2023-01-10T10:41:19.615Z,76888.88
2023-01-10T10:43:48.752Z,76892.91
2023-01-10T10:46:20.106Z,76896.97
2023-01-10T10:49:35.536Z,76892.91
2023-01-10T10:52:09.462Z,76894.94
2023-01-10T10:54:37.167Z,76888.88
2023-01-10T10:57:04.274Z,76901.03
2023-01-10T10:59:31.517Z,76892.91
2023-01-10T11:01:58.678Z,76901.03
2023-01-10T11:04:27.083Z,76901.03
2023-01-10T11:06:54.694Z,76909.13
2023-01-10T11:09:33.694Z,76901.03
2023-01-10T11:12:01.172Z,76896.97
2023-01-10T11:14:49.834Z,76892.91
2023-01-10T11:17:26.028Z,76901.03
2023-01-10T11:19:57.718Z,76901.03
2023-01-10T11:22:26.338Z,76909.13
2023-01-10T11:25:00.423Z,76905.09
2023-01-10T11:27:32.739Z,76905.09
2023-01-10T11:30:08.815Z,76909.13
2023-01-10T11:32:40.249Z,76917.25
2023-01-10T11:35:17.780Z,76917.25
2023-01-10T11:38:05.841Z,76917.25
2023-01-10T11:40:36.327Z,76919.28
2023-01-10T11:43:41.467Z,76919.28
2023-01-10T11:46:21.729Z,76917.25
2023-01-10T11:49:06.785Z,76925.34
2023-01-10T11:51:40.575Z,76933.47
2023-01-10T11:54:12.547Z,76929.41
2023-01-10T11:56:41.650Z,76933.47
2023-01-10T11:59:12.688Z,76941.56
2023-01-10T12:01:45.019Z,76927.38
2023-01-10T12:04:21.205Z,76935.50
2023-01-10T12:06:52.186Z,76929.41
2023-01-10T12:09:32.773Z,76945.63
2023-01-10T12:12:26.333Z,76945.63
2023-01-10T12:14:55.878Z,76949.69
2023-01-10T12:17:30.159Z,76949.69
2023-01-10T12:20:00.734Z,76949.69
2023-01-10T12:22:35.864Z,76949.69
2023-01-10T12:25:15.462Z,76953.75
2023-01-10T12:27:44.753Z,76961.84
2023-01-10T12:30:17.078Z,76961.84
2023-01-10T12:32:52.207Z,76963.88
2023-01-10T12:35:23.151Z,76957.78
2023-01-10T12:37:56.192Z,76969.94
2023-01-10T12:40:37.698Z,76969.94
2023-01-10T12:43:47.997Z,76971.97
2023-01-10T12:46:56.569Z,76982.13
2023-01-10T12:49:43.466Z,76988.19
2023-01-10T12:52:18.216Z,76978.06
2023-01-10T12:54:47.294Z,76974.00
2023-01-10T12:57:39.705Z,76965.91
2023-01-10T13:00:15.631Z,76982.13
2023-01-10T13:02:46.446Z,76984.16
2023-01-10T13:05:27.527Z,76994.28
2023-01-10T13:08:12.481Z,76990.22
2023-01-10T13:10:47.419Z,76998.34
2023-01-10T13:13:29.557Z,76994.28
2023-01-10T13:16:15.590Z,76994.28
2023-01-10T13:19:11.883Z,77002.41
2023-01-10T13:21:41.110Z,76998.34
2023-01-10T13:24:28.988Z,77018.63
2023-01-10T13:27:02.133Z,77010.50
2023-01-10T13:29:40.819Z,77024.69
2023-01-10T13:32:25.081Z,77034.84
2023-01-10T13:34:52.768Z,77026.72
2023-01-10T13:37:31.360Z,77047.00
2023-01-10T13:40:00.665Z,77038.88
2023-01-10T13:42:49.578Z,77034.84
2023-01-10T13:45:21.245Z,77034.84
2023-01-10T13:47:52.913Z,77042.94
2023-01-10T13:50:28.905Z,77047.00
2023-01-10T13:53:06.952Z,77051.06
2023-01-10T13:55:53.931Z,77057.13
2023-01-10T13:58:43.038Z,77055.09
2023-01-10T14:01:49.217Z,77063.22
2023-01-10T14:04:24.175Z,77067.28
2023-01-10T14:06:54.201Z,77071.31
2023-01-10T14:09:21.472Z,77067.28
2023-01-10T14:11:58.464Z,77075.38
2023-01-10T14:14:33.386Z,77079.44
2023-01-10T14:17:28.280Z,77079.44
2023-01-10T14:20:21.006Z,77091.59
2023-01-10T14:22:58.751Z,77099.72
2023-01-10T14:25:27.616Z,77095.66
2023-01-10T14:27:56.461Z,77099.72
2023-01-10T14:30:38.007Z,77103.75
2023-01-10T14:33:14.024Z,77109.84
2023-01-10T14:35:46.704Z,77101.72
2023-01-10T14:38:29.879Z,77103.75
2023-01-10T14:41:13.680Z,77107.81
2023-01-10T14:43:53.510Z,77115.94
2023-01-10T14:46:28.894Z,77113.91
2023-01-10T14:49:00.677Z,77109.84
2023-01-10T14:51:30.786Z,77113.91
2023-01-10T14:54:04.771Z,77107.81
2023-01-10T14:56:47.152Z,77109.84
2023-01-10T14:59:28.478Z,77119.97
2023-01-10T15:02:02.820Z,77119.97
2023-01-10T15:04:33.378Z,77126.06
2023-01-10T15:07:05.337Z,77119.97
2023-01-10T15:09:32.253Z,77128.09
2023-01-10T15:12:03.001Z,77136.19
2023-01-10T15:14:32.162Z,77138.22
2023-01-10T15:17:02.573Z,77144.31
2023-01-10T15:19:38.345Z,77148.38
2023-01-10T15:22:38.292Z,77140.25
2023-01-10T15:25:28.557Z,77156.47
2023-01-10T15:27:58.040Z,77168.63
2023-01-10T15:30:31.146Z,77172.69
2023-01-10T15:33:07.726Z,77188.91
2023-01-10T15:35:37.165Z,77184.84
2023-01-10T15:38:12.399Z,77182.84
2023-01-10T15:40:41.068Z,77188.91
2023-01-10T15:43:11.445Z,77188.91
2023-01-10T15:45:40.014Z,77201.06
2023-01-10T15:48:27.522Z,77211.22
2023-01-10T15:51:14.985Z,77217.28
2023-01-10T15:54:04.856Z,77225.41
2023-01-10T15:56:41.015Z,77229.47
2023-01-10T15:59:22.379Z,77235.53
2023-01-10T16:02:27.108Z,77223.38
2023-01-10T16:04:58.000Z,77243.66
2023-01-10T16:07:31.314Z,77259.88
2023-01-10T16:10:15.534Z,77265.97
2023-01-10T16:13:02.089Z,77278.13
2023-01-10T16:15:35.621Z,77282.19
2023-01-10T16:18:02.655Z,77274.06
2023-01-10T16:20:35.276Z,77282.19
2023-01-10T16:23:05.206Z,77286.22
2023-01-10T16:25:35.324Z,77306.50
2023-01-10T16:28:02.842Z,77298.41
2023-01-10T16:30:32.913Z,77304.47
2023-01-10T16:33:17.648Z,77302.44
2023-01-10T16:35:46.696Z,77306.50
2023-01-10T16:38:15.764Z,77298.41
2023-01-10T16:40:57.285Z,77298.41
2023-01-10T16:43:27.123Z,77302.44
2023-01-10T16:45:55.062Z,77306.50
2023-01-10T16:48:22.199Z,77306.50
2023-01-10T16:50:49.435Z,77302.44
2023-01-10T16:53:18.460Z,77310.56
2023-01-10T16:55:53.489Z,77318.66
2023-01-10T16:58:21.200Z,77330.84
2023-01-10T17:00:51.523Z,77310.56
2023-01-10T17:03:23.762Z,77326.78
2023-01-10T17:05:51.931Z,77326.78
2023-01-10T17:08:21.837Z,77336.91
2023-01-10T17:10:52.520Z,77347.06
2023-01-10T17:13:26.368Z,77355.16
2023-01-10T17:15:53.592Z,77365.31
2023-01-10T17:18:20.580Z,77363.28
2023-01-10T17:20:47.964Z,77371.38
2023-01-10T17:23:15.741Z,77375.44
2023-01-10T17:25:43.064Z,77371.38
2023-01-10T17:28:11.731Z,77373.41
2023-01-10T17:30:40.407Z,77379.50
2023-01-10T17:33:10.967Z,77387.59
2023-01-10T17:35:42.543Z,77383.56
2023-01-10T17:38:12.059Z,77379.50
2023-01-10T17:40:41.270Z,77391.66
2023-01-10T17:43:09.138Z,77391.66
2023-01-10T17:45:39.988Z,77405.84
2023-01-10T17:48:07.467Z,77403.84
2023-01-10T17:50:35.540Z,77411.94
2023-01-10T17:53:02.528Z,77416.00
2023-01-10T17:55:29.983Z,77418.03
2023-01-10T17:57:57.122Z,77424.09
2023-01-10T18:00:24.931Z,77416.00
2023-01-10T18:02:52.026Z,77424.09
2023-01-10T18:05:19.428Z,77420.06
2023-01-10T18:07:46.694Z,77420.06
2023-01-10T18:10:13.916Z,77424.09
2023-01-10T18:12:40.812Z,77422.06
2023-01-10T18:15:08.647Z,77432.22
2023-01-10T18:17:35.759Z,77424.09
2023-01-10T18:20:03.643Z,77424.09
2023-01-10T18:22:49.161Z,77420.06
2023-01-10T18:25:17.568Z,77424.09
2023-01-10T18:27:50.151Z,77432.22
2023-01-10T18:30:21.769Z,77426.13
2023-01-10T18:32:50.115Z,77424.09
2023-01-10T18:35:17.945Z,77440.31
2023-01-10T18:37:45.766Z,77432.22
2023-01-10T18:40:13.921Z,77452.50
2023-01-10T18:42:40.976Z,77452.50
2023-01-10T18:45:08.697Z,77454.53
2023-01-10T18:47:35.643Z,77464.66
2023-01-10T18:50:02.935Z,77480.88
2023-01-10T18:52:30.308Z,77462.63
2023-01-10T18:54:57.542Z,77464.66
2023-01-10T18:57:24.986Z,77458.56
2023-01-10T18:59:52.204Z,77464.66
2023-01-10T19:02:19.333Z,77476.81
2023-01-10T19:04:46.842Z,77476.81
2023-01-10T19:07:13.874Z,77480.88
2023-01-10T19:09:41.064Z,77486.97
2023-01-10T19:12:08.385Z,77476.81
2023-01-10T19:14:35.649Z,77478.84
2023-01-10T19:17:03.602Z,77468.72
2023-01-10T19:19:30.907Z,77468.72
2023-01-10T19:21:57.906Z,77472.78
2023-01-10T19:24:27.750Z,77468.72
2023-01-10T19:26:55.999Z,77484.94
2023-01-10T19:29:23.987Z,77486.97
2023-01-10T19:31:51.054Z,77503.19
2023-01-10T19:34:18.627Z,77501.16
2023-01-10T19:36:45.685Z,77493.03
2023-01-10T19:39:13.954Z,77497.09
2023-01-10T19:41:41.816Z,77501.16
2023-01-10T19:44:13.597Z,77495.06
2023-01-10T19:46:40.794Z,77495.06
2023-01-10T19:49:08.542Z,77505.22
2023-01-10T19:51:37.936Z,77503.19
2023-01-10T19:54:06.530Z,77505.22
2023-01-10T19:56:34.775Z,77515.34
2023-01-10T19:59:01.980Z,77521.44
2023-01-10T20:01:31.265Z,77519.41
2023-01-10T20:04:01.710Z,77517.38
2023-01-10T20:06:30.986Z,77521.44
2023-01-10T20:08:58.844Z,77521.44
2023-01-10T20:11:27.497Z,77529.53
2023-01-10T20:13:54.739Z,77525.47
2023-01-10T20:16:23.512Z,77521.44
2023-01-10T20:18:52.257Z,77537.66
2023-01-10T20:21:20.376Z,77549.81
2023-01-10T20:23:48.246Z,77551.84
2023-01-10T20:26:18.814Z,77570.09
2023-01-10T20:28:47.981Z,77586.31
2023-01-10T20:31:23.468Z,77594.44
2023-01-10T20:33:51.104Z,77602.53
2023-01-10T20:36:21.022Z,77616.72
2023-01-10T20:38:48.923Z,77626.88
2023-01-10T20:41:19.713Z,77639.03
2023-01-10T20:43:47.195Z,77643.09
2023-01-10T20:46:17.235Z,77645.13
2023-01-10T20:48:46.152Z,77657.28
2023-01-10T20:51:16.139Z,77675.53
2023-01-10T20:53:44.334Z,77687.69
2023-01-10T20:56:15.016Z,77691.75
2023-01-10T20:58:42.474Z,77703.94
2023-01-10T21:01:10.568Z,77707.97
2023-01-10T21:03:37.887Z,77720.16
2023-01-10T21:06:05.095Z,77724.19
2023-01-10T21:08:32.547Z,77724.19
2023-01-10T21:10:59.433Z,77730.28
2023-01-10T21:13:27.166Z,77740.44
2023-01-10T21:15:56.760Z,77752.59
2023-01-10T21:18:35.113Z,77776.94
2023-01-10T21:21:02.048Z,77787.06
2023-01-10T21:23:29.779Z,77797.19
2023-01-10T21:26:03.109Z,77797.19
2023-01-10T21:28:33.507Z,77813.44
2023-01-10T21:31:00.473Z,77817.47
2023-01-10T21:33:27.807Z,77835.72
2023-01-10T21:35:57.881Z,77833.69
2023-01-10T21:38:27.408Z,77837.75
2023-01-10T21:40:55.689Z,77845.88
2023-01-10T21:43:23.602Z,77845.88
2023-01-10T21:45:50.675Z,77841.81
2023-01-10T21:48:17.946Z,77841.81
2023-01-10T21:50:48.319Z,77841.81
2023-01-10T21:53:15.519Z,77849.94
2023-01-10T21:55:44.064Z,77853.97
2023-01-10T21:58:11.494Z,77853.97
2023-01-10T22:00:38.472Z,77849.94
2023-01-10T22:03:05.722Z,77862.09
2023-01-10T22:05:32.725Z,77853.97
2023-01-10T22:08:00.025Z,77858.03
2023-01-10T22:10:27.003Z,77866.16
2023-01-10T22:12:54.294Z,77868.19
2023-01-10T22:15:21.181Z,77878.31
2023-01-10T22:17:48.494Z,77876.28
2023-01-10T22:20:16.921Z,77874.25
2023-01-10T22:22:44.108Z,77874.25
2023-01-10T22:25:11.039Z,77870.22
2023-01-10T22:27:38.222Z,77870.22
2023-01-10T22:30:05.837Z,77866.16
2023-01-10T22:32:33.025Z,77870.22
2023-01-10T22:35:00.094Z,77874.25
2023-01-10T22:37:27.265Z,77874.25
2023-01-10T22:39:54.187Z,77870.22
2023-01-10T22:42:21.339Z,77864.13
2023-01-10T22:44:48.271Z,77858.03
2023-01-10T22:47:15.557Z,77866.16
2023-01-10T22:49:42.547Z,77870.22
2023-01-10T22:52:11.342Z,77866.16
2023-01-10T22:54:38.257Z,77878.31
2023-01-10T22:57:05.511Z,77874.25
2023-01-10T22:59:42.366Z,77874.25
2023-01-10T23:02:09.606Z,77884.41
2023-01-10T23:04:36.477Z,77882.38
2023-01-10T23:07:03.669Z,77874.25
2023-01-10T23:09:30.982Z,77870.22
2023-01-10T23:11:58.215Z,77874.25
2023-01-10T23:14:25.220Z,77876.28
2023-01-10T23:16:52.465Z,77870.22
2023-01-10T23:19:19.381Z,77874.25
2023-01-10T23:21:46.607Z,77874.25
2023-01-10T23:24:15.024Z,77882.38
2023-01-10T23:26:42.230Z,77882.38
2023-01-10T23:29:09.108Z,77876.28
2023-01-10T23:31:36.324Z,77870.22
2023-01-10T23:34:03.249Z,77870.22
2023-01-10T23:36:30.714Z,77864.13
2023-01-10T23:38:58.174Z,77853.97
2023-01-10T23:41:25.389Z,77851.97
2023-01-10T23:43:52.303Z,77849.94
2023-01-10T23:46:20.211Z,77847.91
2023-01-10T23:48:48.491Z,77837.75
2023-01-10T23:51:16.345Z,77845.88
2023-01-10T23:53:43.335Z,77851.97
2023-01-10T23:56:13.030Z,77849.94
2023-01-10T23:58:40.953Z,77853.97
